Arch Rock, Pennsylvania
Current Conditions -  °F | °C
As of 6:53 PM on Monday 20 Oct 2014 (Local Time) from KSEG Reporting Station
Scattered Clouds Scattered Clouds  
Wind Chill: 58°   Ceiling: Unl
Heat Index: 58°   Visibility: 10mi
Dew Point: 39°   Wind: 7mph
Humidity: 49%   Direction: 190°S
Pressure: 29.92"   Gusts: NA
Location:  40.5853°N, 77.3611°W
Report Text: KSEG 202253Z AUTO 19006KT 10SM SCT090 SCT120 14/04 A2992 RMK AO2 SLP134 T01440039
Loading
Personal Weather Stations






























Interactive Weather Map New forecast layout! Learn more

10-Day Weather Forecast

Advertisements
Track Severe Weather on mobile